sensor_id;sensor_type;location;lat;lon;timestamp;temperature;humidity
15554;DHT22;7878;44.632;10.942;2023-03-13T00:00:57;12.40;77.10
15554;DHT22;7878;44.632;10.942;2023-03-13T00:03:23;12.40;77.50
15554;DHT22;7878;44.632;10.942;2023-03-13T00:05:49;12.40;77.50
15554;DHT22;7878;44.632;10.942;2023-03-13T00:08:14;12.40;77.50
15554;DHT22;7878;44.632;10.942;2023-03-13T00:10:41;12.40;77.10
15554;DHT22;7878;44.632;10.942;2023-03-13T00:13:07;12.30;77.40
15554;DHT22;7878;44.632;10.942;2023-03-13T00:15:33;12.30;77.20
15554;DHT22;7878;44.632;10.942;2023-03-13T00:17:59;12.30;77.60
15554;DHT22;7878;44.632;10.942;2023-03-13T00:20:25;12.20;77.50
15554;DHT22;7878;44.632;10.942;2023-03-13T00:22:51;12.20;78.20
15554;DHT22;7878;44.632;10.942;2023-03-13T00:25:16;12.30;77.70
15554;DHT22;7878;44.632;10.942;2023-03-13T00:27:42;12.30;78.00
15554;DHT22;7878;44.632;10.942;2023-03-13T00:30:08;12.20;78.10
15554;DHT22;7878;44.632;10.942;2023-03-13T00:32:43;12.20;77.60
15554;DHT22;7878;44.632;10.942;2023-03-13T00:35:08;12.30;78.30
15554;DHT22;7878;44.632;10.942;2023-03-13T00:37:34;12.20;77.40
15554;DHT22;7878;44.632;10.942;2023-03-13T00:40:00;12.20;77.90
15554;DHT22;7878;44.632;10.942;2023-03-13T00:42:25;12.10;78.10
15554;DHT22;7878;44.632;10.942;2023-03-13T00:44:51;12.00;78.00
15554;DHT22;7878;44.632;10.942;2023-03-13T00:47:17;12.00;78.20
15554;DHT22;7878;44.632;10.942;2023-03-13T00:49:42;12.00;78.00
15554;DHT22;7878;44.632;10.942;2023-03-13T00:52:08;12.00;78.40
15554;DHT22;7878;44.632;10.942;2023-03-13T00:54:33;11.90;78.10
15554;DHT22;7878;44.632;10.942;2023-03-13T00:56:59;11.90;78.20
15554;DHT22;7878;44.632;10.942;2023-03-13T00:59:25;11.90;78.00
15554;DHT22;7878;44.632;10.942;2023-03-13T01:01:50;11.90;78.00
15554;DHT22;7878;44.632;10.942;2023-03-13T01:04:16;11.90;78.10
15554;DHT22;7878;44.632;10.942;2023-03-13T01:06:42;11.90;78.10
15554;DHT22;7878;44.632;10.942;2023-03-13T01:09:10;11.90;77.40
15554;DHT22;7878;44.632;10.942;2023-03-13T01:11:38;11.90;77.60
15554;DHT22;7878;44.632;10.942;2023-03-13T01:14:07;12.00;77.30
15554;DHT22;7878;44.632;10.942;2023-03-13T01:16:35;11.90;77.20
15554;DHT22;7878;44.632;10.942;2023-03-13T01:19:04;11.80;77.50
15554;DHT22;7878;44.632;10.942;2023-03-13T01:21:30;11.80;77.10
15554;DHT22;7878;44.632;10.942;2023-03-13T01:23:57;11.80;77.30
15554;DHT22;7878;44.632;10.942;2023-03-13T01:26:24;11.80;77.10
15554;DHT22;7878;44.632;10.942;2023-03-13T01:28:50;11.90;77.10
15554;DHT22;7878;44.632;10.942;2023-03-13T01:31:19;11.90;77.00
15554;DHT22;7878;44.632;10.942;2023-03-13T01:33:46;11.90;76.80
15554;DHT22;7878;44.632;10.942;2023-03-13T01:36:12;11.90;77.20
15554;DHT22;7878;44.632;10.942;2023-03-13T01:38:39;11.90;76.70
15554;DHT22;7878;44.632;10.942;2023-03-13T01:41:07;11.90;76.60
15554;DHT22;7878;44.632;10.942;2023-03-13T01:46:27;11.80;77.00
15554;DHT22;7878;44.632;10.942;2023-03-13T01:51:32;11.70;77.60
15554;DHT22;7878;44.632;10.942;2023-03-13T01:54:24;11.60;78.10
15554;DHT22;7878;44.632;10.942;2023-03-13T01:59:36;11.70;78.20
15554;DHT22;7878;44.632;10.942;2023-03-13T02:02:05;11.60;78.30
15554;DHT22;7878;44.632;10.942;2023-03-13T02:04:35;11.60;78.30
15554;DHT22;7878;44.632;10.942;2023-03-13T02:07:06;11.60;78.30
15554;DHT22;7878;44.632;10.942;2023-03-13T02:09:33;11.50;78.20
15554;DHT22;7878;44.632;10.942;2023-03-13T02:12:06;11.50;78.50
15554;DHT22;7878;44.632;10.942;2023-03-13T02:14:36;11.50;78.20
15554;DHT22;7878;44.632;10.942;2023-03-13T02:17:03;11.50;78.10
15554;DHT22;7878;44.632;10.942;2023-03-13T02:19:39;11.50;77.80
15554;DHT22;7878;44.632;10.942;2023-03-13T02:27:19;11.50;78.70
15554;DHT22;7878;44.632;10.942;2023-03-13T02:29:46;11.40;78.90
15554;DHT22;7878;44.632;10.942;2023-03-13T02:32:12;11.40;78.90
15554;DHT22;7878;44.632;10.942;2023-03-13T02:34:39;11.40;79.30
15554;DHT22;7878;44.632;10.942;2023-03-13T02:37:07;11.30;79.00
15554;DHT22;7878;44.632;10.942;2023-03-13T02:39:37;11.30;78.90
15554;DHT22;7878;44.632;10.942;2023-03-13T02:42:04;11.30;79.20
15554;DHT22;7878;44.632;10.942;2023-03-13T02:44:30;11.30;79.70
15554;DHT22;7878;44.632;10.942;2023-03-13T02:46:55;11.30;79.50
15554;DHT22;7878;44.632;10.942;2023-03-13T02:51:49;11.20;80.30
15554;DHT22;7878;44.632;10.942;2023-03-13T02:54:20;11.10;80.50
15554;DHT22;7878;44.632;10.942;2023-03-13T02:56:49;11.10;80.30
15554;DHT22;7878;44.632;10.942;2023-03-13T02:59:16;11.20;80.60
15554;DHT22;7878;44.632;10.942;2023-03-13T03:01:42;11.30;80.80
15554;DHT22;7878;44.632;10.942;2023-03-13T03:04:08;11.30;80.10
15554;DHT22;7878;44.632;10.942;2023-03-13T03:06:33;11.40;80.40
15554;DHT22;7878;44.632;10.942;2023-03-13T03:08:59;11.50;80.60
15554;DHT22;7878;44.632;10.942;2023-03-13T03:11:25;11.50;80.70
15554;DHT22;7878;44.632;10.942;2023-03-13T03:13:50;11.50;80.50
15554;DHT22;7878;44.632;10.942;2023-03-13T03:16:16;11.60;80.00
15554;DHT22;7878;44.632;10.942;2023-03-13T03:18:43;11.60;80.70
15554;DHT22;7878;44.632;10.942;2023-03-13T03:21:09;11.50;80.20
15554;DHT22;7878;44.632;10.942;2023-03-13T03:23:35;11.40;80.20
15554;DHT22;7878;44.632;10.942;2023-03-13T03:26:02;11.30;80.40
15554;DHT22;7878;44.632;10.942;2023-03-13T03:28:28;11.20;80.50
15554;DHT22;7878;44.632;10.942;2023-03-13T03:30:54;11.30;81.10
15554;DHT22;7878;44.632;10.942;2023-03-13T03:33:21;11.30;80.30
15554;DHT22;7878;44.632;10.942;2023-03-13T03:35:46;11.30;80.40
15554;DHT22;7878;44.632;10.942;2023-03-13T03:38:12;11.30;80.60
15554;DHT22;7878;44.632;10.942;2023-03-13T03:40:38;11.30;80.50
15554;DHT22;7878;44.632;10.942;2023-03-13T03:43:04;11.30;80.60
15554;DHT22;7878;44.632;10.942;2023-03-13T03:45:29;11.20;80.40
15554;DHT22;7878;44.632;10.942;2023-03-13T03:47:55;11.20;80.50
15554;DHT22;7878;44.632;10.942;2023-03-13T03:50:27;11.20;80.80
15554;DHT22;7878;44.632;10.942;2023-03-13T03:52:52;11.10;80.80
15554;DHT22;7878;44.632;10.942;2023-03-13T03:55:18;11.00;80.50
15554;DHT22;7878;44.632;10.942;2023-03-13T03:57:44;11.00;80.60
15554;DHT22;7878;44.632;10.942;2023-03-13T04:00:10;11.00;81.30
15554;DHT22;7878;44.632;10.942;2023-03-13T04:02:38;10.80;81.80
15554;DHT22;7878;44.632;10.942;2023-03-13T04:05:04;10.60;82.30
15554;DHT22;7878;44.632;10.942;2023-03-13T04:07:30;10.50;82.70
15554;DHT22;7878;44.632;10.942;2023-03-13T04:09:56;10.40;82.60
15554;DHT22;7878;44.632;10.942;2023-03-13T04:12:22;10.30;83.10
15554;DHT22;7878;44.632;10.942;2023-03-13T04:14:47;10.30;83.20
15554;DHT22;7878;44.632;10.942;2023-03-13T04:17:13;10.30;83.20
15554;DHT22;7878;44.632;10.942;2023-03-13T04:19:39;10.20;83.40
15554;DHT22;7878;44.632;10.942;2023-03-13T04:22:05;10.20;83.80
15554;DHT22;7878;44.632;10.942;2023-03-13T04:24:31;10.20;84.00
15554;DHT22;7878;44.632;10.942;2023-03-13T04:26:56;10.20;84.20
15554;DHT22;7878;44.632;10.942;2023-03-13T04:29:22;10.20;84.60
15554;DHT22;7878;44.632;10.942;2023-03-13T04:31:48;10.20;84.10
15554;DHT22;7878;44.632;10.942;2023-03-13T04:34:13;10.30;83.80
15554;DHT22;7878;44.632;10.942;2023-03-13T04:36:39;10.30;84.20
15554;DHT22;7878;44.632;10.942;2023-03-13T04:39:05;10.40;84.00
15554;DHT22;7878;44.632;10.942;2023-03-13T04:41:30;10.50;84.00
15554;DHT22;7878;44.632;10.942;2023-03-13T04:43:56;10.40;83.90
15554;DHT22;7878;44.632;10.942;2023-03-13T04:46:22;10.40;84.00
15554;DHT22;7878;44.632;10.942;2023-03-13T04:48:47;10.40;83.90
15554;DHT22;7878;44.632;10.942;2023-03-13T04:51:13;10.60;83.60
15554;DHT22;7878;44.632;10.942;2023-03-13T04:53:38;10.70;83.70
15554;DHT22;7878;44.632;10.942;2023-03-13T04:56:04;10.70;83.40
15554;DHT22;7878;44.632;10.942;2023-03-13T04:58:30;10.80;82.90
15554;DHT22;7878;44.632;10.942;2023-03-13T05:00:56;10.90;82.70
15554;DHT22;7878;44.632;10.942;2023-03-13T05:03:22;11.00;82.80
15554;DHT22;7878;44.632;10.942;2023-03-13T05:05:48;11.00;82.00
15554;DHT22;7878;44.632;10.942;2023-03-13T05:08:14;11.10;82.60
15554;DHT22;7878;44.632;10.942;2023-03-13T05:10:43;11.10;82.10
15554;DHT22;7878;44.632;10.942;2023-03-13T05:13:09;11.10;81.60
15554;DHT22;7878;44.632;10.942;2023-03-13T05:15:34;11.10;82.60
15554;DHT22;7878;44.632;10.942;2023-03-13T05:18:00;11.00;82.80
15554;DHT22;7878;44.632;10.942;2023-03-13T05:20:26;11.00;82.90
15554;DHT22;7878;44.632;10.942;2023-03-13T05:22:51;11.00;82.50
15554;DHT22;7878;44.632;10.942;2023-03-13T05:25:17;11.00;82.50
15554;DHT22;7878;44.632;10.942;2023-03-13T05:27:44;11.10;82.40
15554;DHT22;7878;44.632;10.942;2023-03-13T05:30:10;11.10;82.20
15554;DHT22;7878;44.632;10.942;2023-03-13T05:32:36;11.10;81.90
15554;DHT22;7878;44.632;10.942;2023-03-13T05:35:01;11.10;81.60
15554;DHT22;7878;44.632;10.942;2023-03-13T05:37:27;11.10;81.60
15554;DHT22;7878;44.632;10.942;2023-03-13T05:39:52;11.20;81.90
15554;DHT22;7878;44.632;10.942;2023-03-13T05:42:18;11.20;81.50
15554;DHT22;7878;44.632;10.942;2023-03-13T05:44:44;11.10;81.60
15554;DHT22;7878;44.632;10.942;2023-03-13T05:47:09;11.10;81.90
15554;DHT22;7878;44.632;10.942;2023-03-13T05:49:35;11.10;81.50
15554;DHT22;7878;44.632;10.942;2023-03-13T05:52:01;11.10;81.50
15554;DHT22;7878;44.632;10.942;2023-03-13T05:54:26;11.10;81.70
15554;DHT22;7878;44.632;10.942;2023-03-13T05:56:52;11.10;81.90
15554;DHT22;7878;44.632;10.942;2023-03-13T05:59:18;11.10;81.60
15554;DHT22;7878;44.632;10.942;2023-03-13T06:01:43;11.10;81.60
15554;DHT22;7878;44.632;10.942;2023-03-13T06:04:09;11.20;81.50
15554;DHT22;7878;44.632;10.942;2023-03-13T06:06:35;11.10;81.50
15554;DHT22;7878;44.632;10.942;2023-03-13T06:09:00;11.10;81.40
15554;DHT22;7878;44.632;10.942;2023-03-13T06:11:26;11.10;81.50
15554;DHT22;7878;44.632;10.942;2023-03-13T06:13:52;11.20;81.50
15554;DHT22;7878;44.632;10.942;2023-03-13T06:16:18;11.20;81.60
15554;DHT22;7878;44.632;10.942;2023-03-13T06:18:44;11.20;81.50
15554;DHT22;7878;44.632;10.942;2023-03-13T06:21:09;11.20;81.30
15554;DHT22;7878;44.632;10.942;2023-03-13T06:23:35;11.20;81.50
15554;DHT22;7878;44.632;10.942;2023-03-13T06:26:01;11.30;81.30
15554;DHT22;7878;44.632;10.942;2023-03-13T06:28:27;11.30;81.60
15554;DHT22;7878;44.632;10.942;2023-03-13T06:30:53;11.40;81.70
15554;DHT22;7878;44.632;10.942;2023-03-13T06:33:19;11.40;81.70
15554;DHT22;7878;44.632;10.942;2023-03-13T06:35:45;11.40;81.60
15554;DHT22;7878;44.632;10.942;2023-03-13T06:38:11;11.50;82.00
15554;DHT22;7878;44.632;10.942;2023-03-13T06:40:36;11.50;81.40
15554;DHT22;7878;44.632;10.942;2023-03-13T06:43:02;11.50;81.60
15554;DHT22;7878;44.632;10.942;2023-03-13T06:45:28;11.60;81.90
15554;DHT22;7878;44.632;10.942;2023-03-13T06:47:54;11.60;81.60
15554;DHT22;7878;44.632;10.942;2023-03-13T06:50:19;11.70;81.30
15554;DHT22;7878;44.632;10.942;2023-03-13T06:52:46;11.60;81.30
15554;DHT22;7878;44.632;10.942;2023-03-13T06:55:12;11.60;81.80
15554;DHT22;7878;44.632;10.942;2023-03-13T06:57:38;11.60;81.70
15554;DHT22;7878;44.632;10.942;2023-03-13T07:00:04;11.70;81.60
15554;DHT22;7878;44.632;10.942;2023-03-13T07:02:31;11.70;81.50
15554;DHT22;7878;44.632;10.942;2023-03-13T07:04:57;11.80;81.60
15554;DHT22;7878;44.632;10.942;2023-03-13T07:07:23;11.80;81.90
15554;DHT22;7878;44.632;10.942;2023-03-13T07:09:49;11.80;81.40
15554;DHT22;7878;44.632;10.942;2023-03-13T07:12:15;11.90;81.60
15554;DHT22;7878;44.632;10.942;2023-03-13T07:14:41;12.00;81.90
15554;DHT22;7878;44.632;10.942;2023-03-13T07:17:07;12.20;81.60
15554;DHT22;7878;44.632;10.942;2023-03-13T07:19:33;12.30;81.40
15554;DHT22;7878;44.632;10.942;2023-03-13T07:21:58;12.30;81.50
15554;DHT22;7878;44.632;10.942;2023-03-13T07:24:24;12.40;81.50
15554;DHT22;7878;44.632;10.942;2023-03-13T07:26:50;12.50;81.00
15554;DHT22;7878;44.632;10.942;2023-03-13T07:29:16;12.60;81.10
15554;DHT22;7878;44.632;10.942;2023-03-13T07:31:41;12.80;81.30
15554;DHT22;7878;44.632;10.942;2023-03-13T07:34:07;12.90;80.90
15554;DHT22;7878;44.632;10.942;2023-03-13T07:36:33;13.00;80.70
15554;DHT22;7878;44.632;10.942;2023-03-13T07:39:00;13.10;80.60
15554;DHT22;7878;44.632;10.942;2023-03-13T07:41:26;13.10;80.00
15554;DHT22;7878;44.632;10.942;2023-03-13T07:43:51;13.10;80.20
15554;DHT22;7878;44.632;10.942;2023-03-13T07:46:18;13.10;80.30
15554;DHT22;7878;44.632;10.942;2023-03-13T07:48:45;13.10;80.40
15554;DHT22;7878;44.632;10.942;2023-03-13T07:51:19;13.10;80.80
15554;DHT22;7878;44.632;10.942;2023-03-13T07:53:45;13.20;81.40
15554;DHT22;7878;44.632;10.942;2023-03-13T07:56:16;13.20;80.90
15554;DHT22;7878;44.632;10.942;2023-03-13T07:58:42;13.20;80.80
15554;DHT22;7878;44.632;10.942;2023-03-13T08:01:09;13.20;80.50
15554;DHT22;7878;44.632;10.942;2023-03-13T08:03:35;13.30;80.00
15554;DHT22;7878;44.632;10.942;2023-03-13T08:06:04;13.50;80.20
15554;DHT22;7878;44.632;10.942;2023-03-13T08:08:30;13.70;80.10
15554;DHT22;7878;44.632;10.942;2023-03-13T08:11:04;13.90;80.00
15554;DHT22;7878;44.632;10.942;2023-03-13T08:13:31;14.00;79.70
15554;DHT22;7878;44.632;10.942;2023-03-13T08:16:16;14.20;79.50
15554;DHT22;7878;44.632;10.942;2023-03-13T08:18:47;14.30;80.00
15554;DHT22;7878;44.632;10.942;2023-03-13T08:21:24;14.40;79.80
15554;DHT22;7878;44.632;10.942;2023-03-13T08:23:55;14.40;79.60
15554;DHT22;7878;44.632;10.942;2023-03-13T08:26:24;14.30;79.70
15554;DHT22;7878;44.632;10.942;2023-03-13T08:28:57;14.30;79.80
15554;DHT22;7878;44.632;10.942;2023-03-13T08:31:26;14.30;80.80
15554;DHT22;7878;44.632;10.942;2023-03-13T08:33:52;14.30;81.20
15554;DHT22;7878;44.632;10.942;2023-03-13T08:36:24;14.30;81.90
15554;DHT22;7878;44.632;10.942;2023-03-13T08:38:52;14.30;81.60
15554;DHT22;7878;44.632;10.942;2023-03-13T08:41:24;14.50;81.70
15554;DHT22;7878;44.632;10.942;2023-03-13T08:43:54;14.80;81.50
15554;DHT22;7878;44.632;10.942;2023-03-13T08:46:20;15.20;81.50
15554;DHT22;7878;44.632;10.942;2023-03-13T08:48:53;15.40;80.80
15554;DHT22;7878;44.632;10.942;2023-03-13T08:51:21;15.80;81.30
15554;DHT22;7878;44.632;10.942;2023-03-13T08:53:48;16.00;80.70
15554;DHT22;7878;44.632;10.942;2023-03-13T08:56:16;16.30;80.60
15554;DHT22;7878;44.632;10.942;2023-03-13T08:58:43;16.60;80.10
15554;DHT22;7878;44.632;10.942;2023-03-13T09:01:11;16.60;79.80
15554;DHT22;7878;44.632;10.942;2023-03-13T09:03:37;16.90;79.90
15554;DHT22;7878;44.632;10.942;2023-03-13T09:06:03;17.20;79.20
15554;DHT22;7878;44.632;10.942;2023-03-13T09:08:30;17.30;79.10
15554;DHT22;7878;44.632;10.942;2023-03-13T09:13:27;17.60;78.80
15554;DHT22;7878;44.632;10.942;2023-03-13T09:15:58;17.60;78.20
15554;DHT22;7878;44.632;10.942;2023-03-13T09:18:24;17.80;78.40
15554;DHT22;7878;44.632;10.942;2023-03-13T09:20:52;17.90;78.00
15554;DHT22;7878;44.632;10.942;2023-03-13T09:23:19;18.10;77.70
15554;DHT22;7878;44.632;10.942;2023-03-13T09:25:45;18.30;77.10
15554;DHT22;7878;44.632;10.942;2023-03-13T09:28:10;18.50;77.10
15554;DHT22;7878;44.632;10.942;2023-03-13T09:30:36;18.60;76.80
15554;DHT22;7878;44.632;10.942;2023-03-13T09:33:02;18.30;76.50
15554;DHT22;7878;44.632;10.942;2023-03-13T09:35:28;18.30;76.90
15554;DHT22;7878;44.632;10.942;2023-03-13T09:37:53;18.20;76.60
15554;DHT22;7878;44.632;10.942;2023-03-13T09:40:21;18.10;76.90
15554;DHT22;7878;44.632;10.942;2023-03-13T09:42:51;18.30;76.90
15554;DHT22;7878;44.632;10.942;2023-03-13T09:45:40;18.60;76.70
15554;DHT22;7878;44.632;10.942;2023-03-13T09:48:14;18.90;76.50
15554;DHT22;7878;44.632;10.942;2023-03-13T09:50:44;19.00;75.80
15554;DHT22;7878;44.632;10.942;2023-03-13T09:56:44;19.20;75.60
15554;DHT22;7878;44.632;10.942;2023-03-13T09:59:40;19.50;74.90
15554;DHT22;7878;44.632;10.942;2023-03-13T10:05:15;20.00;74.20
15554;DHT22;7878;44.632;10.942;2023-03-13T10:07:42;20.50;73.50
15554;DHT22;7878;44.632;10.942;2023-03-13T10:10:20;20.60;72.80
15554;DHT22;7878;44.632;10.942;2023-03-13T10:12:53;20.60;72.60
15554;DHT22;7878;44.632;10.942;2023-03-13T10:15:50;20.40;72.50
15554;DHT22;7878;44.632;10.942;2023-03-13T10:18:20;19.90;73.30
15554;DHT22;7878;44.632;10.942;2023-03-13T10:20:49;19.70;73.70
15554;DHT22;7878;44.632;10.942;2023-03-13T10:23:32;19.70;73.90
15554;DHT22;7878;44.632;10.942;2023-03-13T10:25:59;20.10;74.00
15554;DHT22;7878;44.632;10.942;2023-03-13T10:28:25;20.80;73.10
15554;DHT22;7878;44.632;10.942;2023-03-13T10:31:16;21.50;71.90
15554;DHT22;7878;44.632;10.942;2023-03-13T10:33:40;21.90;70.90
15554;DHT22;7878;44.632;10.942;2023-03-13T10:36:09;22.20;70.60
15554;DHT22;7878;44.632;10.942;2023-03-13T10:38:52;22.60;70.50
15554;DHT22;7878;44.632;10.942;2023-03-13T10:41:28;22.30;69.20
15554;DHT22;7878;44.632;10.942;2023-03-13T10:44:19;21.70;70.20
15554;DHT22;7878;44.632;10.942;2023-03-13T10:46:47;21.00;69.80
15554;DHT22;7878;44.632;10.942;2023-03-13T10:49:22;20.50;71.00
15554;DHT22;7878;44.632;10.942;2023-03-13T10:52:02;20.30;71.70
15554;DHT22;7878;44.632;10.942;2023-03-13T10:54:32;20.40;71.60
15554;DHT22;7878;44.632;10.942;2023-03-13T10:59:48;23.40;68.90
15554;DHT22;7878;44.632;10.942;2023-03-13T11:02:31;25.50;67.10
15554;DHT22;7878;44.632;10.942;2023-03-13T11:04:57;26.70;63.50
15554;DHT22;7878;44.632;10.942;2023-03-13T11:07:36;26.80;65.00
15554;DHT22;7878;44.632;10.942;2023-03-13T11:10:21;26.10;61.90
15554;DHT22;7878;44.632;10.942;2023-03-13T11:12:52;25.00;63.30
15554;DHT22;7878;44.632;10.942;2023-03-13T11:15:28;24.90;64.80
15554;DHT22;7878;44.632;10.942;2023-03-13T11:20:35;24.40;63.70
15554;DHT22;7878;44.632;10.942;2023-03-13T11:37:11;29.10;56.80
15554;DHT22;7878;44.632;10.942;2023-03-13T11:47:58;27.20;58.20
15554;DHT22;7878;44.632;10.942;2023-03-13T11:50:41;26.70;62.30
15554;DHT22;7878;44.632;10.942;2023-03-13T11:53:30;26.20;61.90
15554;DHT22;7878;44.632;10.942;2023-03-13T11:56:22;25.30;60.40
15554;DHT22;7878;44.632;10.942;2023-03-13T12:01:53;24.00;63.00
15554;DHT22;7878;44.632;10.942;2023-03-13T12:04:34;24.30;61.20
15554;DHT22;7878;44.632;10.942;2023-03-13T12:09:47;24.70;62.60
15554;DHT22;7878;44.632;10.942;2023-03-13T12:15:23;27.10;58.80
15554;DHT22;7878;44.632;10.942;2023-03-13T12:18:03;28.40;59.70
15554;DHT22;7878;44.632;10.942;2023-03-13T12:26:09;27.00;55.90
15554;DHT22;7878;44.632;10.942;2023-03-13T12:36:47;23.00;61.30
15554;DHT22;7878;44.632;10.942;2023-03-13T12:39:19;22.60;63.20
15554;DHT22;7878;44.632;10.942;2023-03-13T12:44:21;22.20;63.40
15554;DHT22;7878;44.632;10.942;2023-03-13T12:52:33;21.40;64.30
15554;DHT22;7878;44.632;10.942;2023-03-13T13:00:24;20.90;66.30
15554;DHT22;7878;44.632;10.942;2023-03-13T13:03:29;20.70;66.80
15554;DHT22;7878;44.632;10.942;2023-03-13T13:06:14;20.70;66.90
15554;DHT22;7878;44.632;10.942;2023-03-13T13:14:01;20.10;67.80
15554;DHT22;7878;44.632;10.942;2023-03-13T13:16:27;19.90;67.70
15554;DHT22;7878;44.632;10.942;2023-03-13T13:18:54;19.80;68.20
15554;DHT22;7878;44.632;10.942;2023-03-13T13:21:22;19.70;68.30
15554;DHT22;7878;44.632;10.942;2023-03-13T13:23:51;19.70;68.40
15554;DHT22;7878;44.632;10.942;2023-03-13T13:36:55;20.10;68.90
15554;DHT22;7878;44.632;10.942;2023-03-13T13:39:38;20.00;68.40
15554;DHT22;7878;44.632;10.942;2023-03-13T13:53:53;19.90;70.00
15554;DHT22;7878;44.632;10.942;2023-03-13T13:59:24;19.60;70.40
15554;DHT22;7878;44.632;10.942;2023-03-13T14:02:15;19.50;70.70
15554;DHT22;7878;44.632;10.942;2023-03-13T14:04:51;19.30;71.00
15554;DHT22;7878;44.632;10.942;2023-03-13T14:07:31;19.10;70.70
15554;DHT22;7878;44.632;10.942;2023-03-13T14:10:24;19.10;71.30
15554;DHT22;7878;44.632;10.942;2023-03-13T14:12:58;19.10;71.70
15554;DHT22;7878;44.632;10.942;2023-03-13T14:15:26;19.20;71.40
15554;DHT22;7878;44.632;10.942;2023-03-13T14:18:10;19.10;71.40
15554;DHT22;7878;44.632;10.942;2023-03-13T14:20:39;19.30;71.60
15554;DHT22;7878;44.632;10.942;2023-03-13T14:23:07;19.50;71.10
15554;DHT22;7878;44.632;10.942;2023-03-13T14:25:48;19.70;71.00
15554;DHT22;7878;44.632;10.942;2023-03-13T14:28:22;19.80;71.30
15554;DHT22;7878;44.632;10.942;2023-03-13T14:30:52;19.80;71.40
15554;DHT22;7878;44.632;10.942;2023-03-13T14:33:18;19.70;71.00
15554;DHT22;7878;44.632;10.942;2023-03-13T14:35:45;19.80;71.30
15554;DHT22;7878;44.632;10.942;2023-03-13T14:38:25;19.70;71.10
15554;DHT22;7878;44.632;10.942;2023-03-13T14:40:53;19.70;71.30
15554;DHT22;7878;44.632;10.942;2023-03-13T14:43:40;19.80;71.20
15554;DHT22;7878;44.632;10.942;2023-03-13T14:46:31;19.70;71.20
15554;DHT22;7878;44.632;10.942;2023-03-13T14:49:06;19.60;71.20
15554;DHT22;7878;44.632;10.942;2023-03-13T14:51:37;19.60;71.00
15554;DHT22;7878;44.632;10.942;2023-03-13T14:54:04;19.60;71.20
15554;DHT22;7878;44.632;10.942;2023-03-13T14:56:39;19.50;71.10
15554;DHT22;7878;44.632;10.942;2023-03-13T14:59:23;19.40;71.80
15554;DHT22;7878;44.632;10.942;2023-03-13T15:02:19;19.30;72.30
15554;DHT22;7878;44.632;10.942;2023-03-13T15:04:59;19.20;72.60
15554;DHT22;7878;44.632;10.942;2023-03-13T15:07:40;19.20;72.20
15554;DHT22;7878;44.632;10.942;2023-03-13T15:10:31;19.30;72.30
15554;DHT22;7878;44.632;10.942;2023-03-13T15:12:57;19.20;72.30
15554;DHT22;7878;44.632;10.942;2023-03-13T15:15:23;19.10;71.70
15554;DHT22;7878;44.632;10.942;2023-03-13T15:17:49;19.10;71.50
15554;DHT22;7878;44.632;10.942;2023-03-13T15:20:15;19.10;71.70
15554;DHT22;7878;44.632;10.942;2023-03-13T15:22:44;19.10;71.80
15554;DHT22;7878;44.632;10.942;2023-03-13T15:25:19;19.00;71.90
15554;DHT22;7878;44.632;10.942;2023-03-13T15:27:45;19.00;72.50
15554;DHT22;7878;44.632;10.942;2023-03-13T15:30:21;19.00;72.10
15554;DHT22;7878;44.632;10.942;2023-03-13T15:32:50;19.00;72.50
15554;DHT22;7878;44.632;10.942;2023-03-13T15:37:47;19.00;72.10
15554;DHT22;7878;44.632;10.942;2023-03-13T15:40:15;18.90;71.90
15554;DHT22;7878;44.632;10.942;2023-03-13T15:42:41;18.80;72.00
15554;DHT22;7878;44.632;10.942;2023-03-13T15:45:07;18.80;72.30
15554;DHT22;7878;44.632;10.942;2023-03-13T15:47:32;18.80;72.30
15554;DHT22;7878;44.632;10.942;2023-03-13T15:49:58;18.70;72.50
15554;DHT22;7878;44.632;10.942;2023-03-13T15:52:24;18.60;72.60
15554;DHT22;7878;44.632;10.942;2023-03-13T15:54:50;18.50;72.70
15554;DHT22;7878;44.632;10.942;2023-03-13T15:57:18;18.50;72.80
15554;DHT22;7878;44.632;10.942;2023-03-13T15:59:47;18.50;73.10
15554;DHT22;7878;44.632;10.942;2023-03-13T16:02:14;18.40;73.80
15554;DHT22;7878;44.632;10.942;2023-03-13T16:04:41;18.40;73.30
15554;DHT22;7878;44.632;10.942;2023-03-13T16:07:16;18.30;73.10
15554;DHT22;7878;44.632;10.942;2023-03-13T16:09:43;18.30;73.50
15554;DHT22;7878;44.632;10.942;2023-03-13T16:12:09;18.20;73.30
15554;DHT22;7878;44.632;10.942;2023-03-13T16:14:36;18.20;73.40
15554;DHT22;7878;44.632;10.942;2023-03-13T16:17:05;18.20;73.80
15554;DHT22;7878;44.632;10.942;2023-03-13T16:19:35;18.20;74.00
15554;DHT22;7878;44.632;10.942;2023-03-13T16:22:00;18.20;73.90
15554;DHT22;7878;44.632;10.942;2023-03-13T16:24:26;18.20;74.00
15554;DHT22;7878;44.632;10.942;2023-03-13T16:26:53;18.20;73.90
15554;DHT22;7878;44.632;10.942;2023-03-13T16:29:18;18.20;74.00
15554;DHT22;7878;44.632;10.942;2023-03-13T16:31:44;18.20;74.00
15554;DHT22;7878;44.632;10.942;2023-03-13T16:34:10;18.10;73.90
15554;DHT22;7878;44.632;10.942;2023-03-13T16:36:36;18.10;74.20
15554;DHT22;7878;44.632;10.942;2023-03-13T16:39:09;18.00;74.20
15554;DHT22;7878;44.632;10.942;2023-03-13T16:41:36;18.00;74.50
15554;DHT22;7878;44.632;10.942;2023-03-13T16:44:02;18.00;74.60
15554;DHT22;7878;44.632;10.942;2023-03-13T16:49:01;17.90;75.00
15554;DHT22;7878;44.632;10.942;2023-03-13T16:51:28;17.90;74.90
15554;DHT22;7878;44.632;10.942;2023-03-13T16:53:55;17.80;74.80
15554;DHT22;7878;44.632;10.942;2023-03-13T16:56:29;17.80;74.90
15554;DHT22;7878;44.632;10.942;2023-03-13T16:58:56;17.80;75.10
15554;DHT22;7878;44.632;10.942;2023-03-13T17:01:22;17.70;75.10
15554;DHT22;7878;44.632;10.942;2023-03-13T17:03:50;17.70;75.10
15554;DHT22;7878;44.632;10.942;2023-03-13T17:06:28;17.70;75.10
15554;DHT22;7878;44.632;10.942;2023-03-13T17:08:56;17.70;75.90
15554;DHT22;7878;44.632;10.942;2023-03-13T17:11:23;17.70;75.30
15554;DHT22;7878;44.632;10.942;2023-03-13T17:13:50;17.70;75.40
15554;DHT22;7878;44.632;10.942;2023-03-13T17:16:22;17.70;75.40
15554;DHT22;7878;44.632;10.942;2023-03-13T17:18:50;17.70;75.90
15554;DHT22;7878;44.632;10.942;2023-03-13T17:21:19;17.70;75.70
15554;DHT22;7878;44.632;10.942;2023-03-13T17:23:45;17.60;76.00
15554;DHT22;7878;44.632;10.942;2023-03-13T17:26:32;17.60;75.80
15554;DHT22;7878;44.632;10.942;2023-03-13T17:28:58;17.60;77.30
15554;DHT22;7878;44.632;10.942;2023-03-13T17:31:26;17.60;76.00
15554;DHT22;7878;44.632;10.942;2023-03-13T17:33:51;17.60;76.20
15554;DHT22;7878;44.632;10.942;2023-03-13T17:38:53;17.60;76.50
15554;DHT22;7878;44.632;10.942;2023-03-13T17:41:27;17.60;76.50
15554;DHT22;7878;44.632;10.942;2023-03-13T17:43:54;17.60;76.80
15554;DHT22;7878;44.632;10.942;2023-03-13T17:46:23;17.60;76.50
15554;DHT22;7878;44.632;10.942;2023-03-13T17:48:52;17.60;76.80